sensor_id;sensor_type;location;lat;lon;timestamp;pressure;altitude;pressure_sealevel;temperature;humidity
33795;BME280;51430;52.242;21.118;2024-03-22T00:00:27;100408.55;;;9.93;93.63
33795;BME280;51430;52.242;21.118;2024-03-22T00:03:15;100408.73;;;9.85;94.25
33795;BME280;51430;52.242;21.118;2024-03-22T00:05:43;100407.70;;;9.87;94.49
33795;BME280;51430;52.242;21.118;2024-03-22T00:08:10;100407.89;;;9.87;94.66
33795;BME280;51430;52.242;21.118;2024-03-22T00:10:39;100406.16;;;9.95;94.83
33795;BME280;51430;52.242;21.118;2024-03-22T00:13:07;100401.52;;;10.06;94.35
33795;BME280;51430;52.242;21.118;2024-03-22T00:15:35;100402.09;;;10.10;94.08
33795;BME280;51430;52.242;21.118;2024-03-22T00:18:30;100401.21;;;10.10;94.06
33795;BME280;51430;52.242;21.118;2024-03-22T00:20:58;100397.30;;;10.09;94.11
33795;BME280;51430;52.242;21.118;2024-03-22T00:23:26;100394.05;;;10.08;94.46
33795;BME280;51430;52.242;21.118;2024-03-22T00:25:55;100395.68;;;10.07;95.29
33795;BME280;51430;52.242;21.118;2024-03-22T00:28:22;100393.57;;;10.08;95.65
33795;BME280;51430;52.242;21.118;2024-03-22T00:30:50;100390.23;;;9.91;96.99
33795;BME280;51430;52.242;21.118;2024-03-22T00:33:18;100382.22;;;9.91;98.19
33795;BME280;51430;52.242;21.118;2024-03-22T00:35:47;100384.18;;;9.97;98.13
33795;BME280;51430;52.242;21.118;2024-03-22T00:38:15;100385.72;;;9.98;98.28
33795;BME280;51430;52.242;21.118;2024-03-22T00:40:43;100384.77;;;10.04;98.59
33795;BME280;51430;52.242;21.118;2024-03-22T00:43:11;100384.63;;;10.06;99.10
33795;BME280;51430;52.242;21.118;2024-03-22T00:45:40;100384.17;;;10.07;99.46
33795;BME280;51430;52.242;21.118;2024-03-22T00:48:09;100382.63;;;10.02;99.60
33795;BME280;51430;52.242;21.118;2024-03-22T00:50:37;100383.27;;;9.93;99.96
33795;BME280;51430;52.242;21.118;2024-03-22T00:53:06;100381.08;;;9.97;100.00
33795;BME280;51430;52.242;21.118;2024-03-22T00:55:35;100383.00;;;9.99;100.00
33795;BME280;51430;52.242;21.118;2024-03-22T00:58:03;100377.17;;;9.96;100.00
33795;BME280;51430;52.242;21.118;2024-03-22T01:00:31;100378.63;;;9.95;100.00
33795;BME280;51430;52.242;21.118;2024-03-22T01:02:59;100383.64;;;10.00;100.00
33795;BME280;51430;52.242;21.118;2024-03-22T01:05:26;100385.57;;;10.00;100.00
33795;BME280;51430;52.242;21.118;2024-03-22T01:07:54;100384.18;;;10.00;100.00
33795;BME280;51430;52.242;21.118;2024-03-22T01:10:22;100380.27;;;9.99;100.00
33795;BME280;51430;52.242;21.118;2024-03-22T01:13:16;100376.61;;;9.99;100.00
33795;BME280;51430;52.242;21.118;2024-03-22T01:15:44;100375.42;;;9.81;100.00
33795;BME280;51430;52.242;21.118;2024-03-22T01:18:13;100374.93;;;9.88;100.00
33795;BME280;51430;52.242;21.118;2024-03-22T01:20:41;100368.02;;;9.95;100.00
33795;BME280;51430;52.242;21.118;2024-03-22T01:23:09;100370.17;;;9.99;100.00
33795;BME280;51430;52.242;21.118;2024-03-22T01:25:37;100375.89;;;10.01;100.00
33795;BME280;51430;52.242;21.118;2024-03-22T01:28:05;100375.42;;;10.05;100.00
33795;BME280;51430;52.242;21.118;2024-03-22T01:30:32;100371.31;;;10.07;100.00
33795;BME280;51430;52.242;21.118;2024-03-22T01:33:01;100365.80;;;10.06;100.00
33795;BME280;51430;52.242;21.118;2024-03-22T01:35:29;100362.91;;;10.08;100.00
33795;BME280;51430;52.242;21.118;2024-03-22T01:37:57;100361.17;;;10.08;100.00
33795;BME280;51430;52.242;21.118;2024-03-22T01:40:25;100362.45;;;10.07;100.00
33795;BME280;51430;52.242;21.118;2024-03-22T01:42:57;100363.70;;;10.06;100.00
33795;BME280;51430;52.242;21.118;2024-03-22T01:45:25;100364.89;;;10.09;100.00
33795;BME280;51430;52.242;21.118;2024-03-22T01:47:54;100368.29;;;10.08;100.00
33795;BME280;51430;52.242;21.118;2024-03-22T01:50:22;100366.64;;;10.04;100.00
33795;BME280;51430;52.242;21.118;2024-03-22T01:52:50;100363.64;;;10.04;100.00
33795;BME280;51430;52.242;21.118;2024-03-22T01:55:18;100362.84;;;10.06;100.00
33795;BME280;51430;52.242;21.118;2024-03-22T01:57:46;100361.00;;;10.07;100.00
33795;BME280;51430;52.242;21.118;2024-03-22T02:00:14;100362.46;;;10.09;100.00
33795;BME280;51430;52.242;21.118;2024-03-22T02:02:42;100363.48;;;10.07;100.00
33795;BME280;51430;52.242;21.118;2024-03-22T02:07:42;100359.81;;;10.10;100.00
33795;BME280;51430;52.242;21.118;2024-03-22T02:10:10;100357.75;;;10.13;100.00
33795;BME280;51430;52.242;21.118;2024-03-22T02:12:39;100359.02;;;10.16;100.00
33795;BME280;51430;52.242;21.118;2024-03-22T02:15:07;100354.27;;;10.11;100.00
33795;BME280;51430;52.242;21.118;2024-03-22T02:17:35;100355.29;;;10.12;100.00
33795;BME280;51430;52.242;21.118;2024-03-22T02:20:03;100356.76;;;10.11;100.00
33795;BME280;51430;52.242;21.118;2024-03-22T02:22:35;100356.61;;;10.10;100.00
33795;BME280;51430;52.242;21.118;2024-03-22T02:25:03;100352.87;;;10.14;100.00
33795;BME280;51430;52.242;21.118;2024-03-22T02:27:30;100355.95;;;10.10;100.00
33795;BME280;51430;52.242;21.118;2024-03-22T02:29:58;100354.88;;;10.12;100.00
33795;BME280;51430;52.242;21.118;2024-03-22T02:32:26;100352.04;;;10.18;100.00
33795;BME280;51430;52.242;21.118;2024-03-22T02:34:53;100352.38;;;10.20;100.00
33795;BME280;51430;52.242;21.118;2024-03-22T02:37:28;100353.74;;;10.18;100.00
33795;BME280;51430;52.242;21.118;2024-03-22T02:39:56;100353.83;;;10.15;100.00
33795;BME280;51430;52.242;21.118;2024-03-22T02:42:23;100358.21;;;10.14;100.00
33795;BME280;51430;52.242;21.118;2024-03-22T02:44:52;100353.84;;;10.17;100.00
33795;BME280;51430;52.242;21.118;2024-03-22T02:47:19;100349.77;;;10.23;100.00
33795;BME280;51430;52.242;21.118;2024-03-22T02:49:51;100347.88;;;10.24;100.00
33795;BME280;51430;52.242;21.118;2024-03-22T02:52:19;100343.17;;;10.27;100.00
33795;BME280;51430;52.242;21.118;2024-03-22T02:54:46;100346.67;;;10.27;100.00
33795;BME280;51430;52.242;21.118;2024-03-22T02:57:14;100347.13;;;10.28;100.00
33795;BME280;51430;52.242;21.118;2024-03-22T02:59:42;100350.98;;;10.34;100.00
33795;BME280;51430;52.242;21.118;2024-03-22T03:02:10;100353.73;;;10.35;100.00
33795;BME280;51430;52.242;21.118;2024-03-22T03:04:37;100352.09;;;10.29;100.00
33795;BME280;51430;52.242;21.118;2024-03-22T03:07:05;100349.52;;;10.21;100.00
33795;BME280;51430;52.242;21.118;2024-03-22T03:09:33;100350.89;;;10.17;100.00
33795;BME280;51430;52.242;21.118;2024-03-22T03:12:00;100349.15;;;10.10;100.00
33795;BME280;51430;52.242;21.118;2024-03-22T03:14:28;100346.44;;;10.14;100.00
33795;BME280;51430;52.242;21.118;2024-03-22T03:16:57;100341.36;;;10.19;100.00
33795;BME280;51430;52.242;21.118;2024-03-22T03:19:25;100340.99;;;10.19;100.00
33795;BME280;51430;52.242;21.118;2024-03-22T03:21:53;100345.02;;;10.16;100.00
33795;BME280;51430;52.242;21.118;2024-03-22T03:24:21;100342.13;;;10.18;100.00
33795;BME280;51430;52.242;21.118;2024-03-22T03:26:49;100347.26;;;10.17;100.00
33795;BME280;51430;52.242;21.118;2024-03-22T03:29:17;100348.02;;;10.11;100.00
33795;BME280;51430;52.242;21.118;2024-03-22T03:31:44;100349.45;;;10.15;100.00
33795;BME280;51430;52.242;21.118;2024-03-22T03:34:12;100348.27;;;10.12;100.00
33795;BME280;51430;52.242;21.118;2024-03-22T03:36:40;100351.91;;;10.10;100.00
33795;BME280;51430;52.242;21.118;2024-03-22T03:39:07;100353.59;;;10.06;100.00
33795;BME280;51430;52.242;21.118;2024-03-22T03:41:35;100357.86;;;10.02;100.00
33795;BME280;51430;52.242;21.118;2024-03-22T03:44:03;100358.23;;;9.90;100.00
33795;BME280;51430;52.242;21.118;2024-03-22T03:46:31;100355.23;;;9.88;100.00
33795;BME280;51430;52.242;21.118;2024-03-22T03:48:58;100354.13;;;9.80;100.00
33795;BME280;51430;52.242;21.118;2024-03-22T03:51:26;100360.38;;;9.78;100.00
33795;BME280;51430;52.242;21.118;2024-03-22T03:53:54;100365.23;;;9.68;100.00
33795;BME280;51430;52.242;21.118;2024-03-22T03:56:21;100369.95;;;9.58;100.00
33795;BME280;51430;52.242;21.118;2024-03-22T03:58:49;100374.48;;;9.51;100.00
33795;BME280;51430;52.242;21.118;2024-03-22T04:01:19;100374.86;;;9.53;100.00
33795;BME280;51430;52.242;21.118;2024-03-22T04:03:53;100374.94;;;9.52;100.00
33795;BME280;51430;52.242;21.118;2024-03-22T04:06:20;100373.51;;;9.36;100.00
33795;BME280;51430;52.242;21.118;2024-03-22T04:08:48;100376.78;;;9.36;100.00
33795;BME280;51430;52.242;21.118;2024-03-22T04:11:16;100378.50;;;9.29;100.00
33795;BME280;51430;52.242;21.118;2024-03-22T04:13:43;100384.13;;;9.16;100.00
33795;BME280;51430;52.242;21.118;2024-03-22T04:16:12;100387.83;;;9.10;100.00
33795;BME280;51430;52.242;21.118;2024-03-22T04:18:39;100392.32;;;9.13;100.00
33795;BME280;51430;52.242;21.118;2024-03-22T04:21:07;100397.14;;;9.11;100.00
33795;BME280;51430;52.242;21.118;2024-03-22T04:23:35;100396.84;;;9.05;100.00
33795;BME280;51430;52.242;21.118;2024-03-22T04:26:03;100399.73;;;9.02;100.00
33795;BME280;51430;52.242;21.118;2024-03-22T04:28:31;100398.88;;;9.01;100.00
33795;BME280;51430;52.242;21.118;2024-03-22T04:31:06;100396.27;;;9.04;100.00
33795;BME280;51430;52.242;21.118;2024-03-22T04:33:37;100396.15;;;9.01;100.00
33795;BME280;51430;52.242;21.118;2024-03-22T04:36:07;100391.96;;;9.01;100.00
33795;BME280;51430;52.242;21.118;2024-03-22T04:38:36;100402.30;;;9.00;100.00
33795;BME280;51430;52.242;21.118;2024-03-22T04:41:04;100398.79;;;9.00;100.00
33795;BME280;51430;52.242;21.118;2024-03-22T04:43:32;100394.14;;;9.00;100.00
33795;BME280;51430;52.242;21.118;2024-03-22T04:45:59;100391.16;;;8.97;100.00
33795;BME280;51430;52.242;21.118;2024-03-22T04:48:27;100395.15;;;9.05;100.00
33795;BME280;51430;52.242;21.118;2024-03-22T04:50:55;100396.44;;;9.09;100.00
33795;BME280;51430;52.242;21.118;2024-03-22T04:53:23;100398.77;;;9.05;100.00
33795;BME280;51430;52.242;21.118;2024-03-22T04:55:51;100400.31;;;9.06;100.00
33795;BME280;51430;52.242;21.118;2024-03-22T04:58:20;100401.28;;;9.07;100.00
33795;BME280;51430;52.242;21.118;2024-03-22T05:00:49;100402.94;;;9.05;100.00
33795;BME280;51430;52.242;21.118;2024-03-22T05:03:23;100402.02;;;9.11;100.00
33795;BME280;51430;52.242;21.118;2024-03-22T05:05:51;100404.70;;;9.12;100.00
33795;BME280;51430;52.242;21.118;2024-03-22T05:08:18;100407.52;;;9.12;100.00
33795;BME280;51430;52.242;21.118;2024-03-22T05:10:46;100406.03;;;9.04;100.00
33795;BME280;51430;52.242;21.118;2024-03-22T05:13:14;100407.09;;;8.99;100.00
33795;BME280;51430;52.242;21.118;2024-03-22T05:15:42;100408.16;;;9.03;100.00
33795;BME280;51430;52.242;21.118;2024-03-22T05:18:10;100412.60;;;9.12;100.00
33795;BME280;51430;52.242;21.118;2024-03-22T05:20:38;100411.76;;;9.16;100.00
33795;BME280;51430;52.242;21.118;2024-03-22T05:23:05;100413.69;;;9.19;100.00
33795;BME280;51430;52.242;21.118;2024-03-22T05:25:33;100410.93;;;9.25;100.00
33795;BME280;51430;52.242;21.118;2024-03-22T05:28:01;100409.69;;;9.28;100.00
33795;BME280;51430;52.242;21.118;2024-03-22T05:30:29;100413.10;;;9.27;100.00
33795;BME280;51430;52.242;21.118;2024-03-22T05:32:57;100410.63;;;9.25;100.00
33795;BME280;51430;52.242;21.118;2024-03-22T05:35:25;100408.38;;;9.30;100.00
33795;BME280;51430;52.242;21.118;2024-03-22T05:37:52;100406.00;;;9.34;100.00
33795;BME280;51430;52.242;21.118;2024-03-22T05:40:20;100404.77;;;9.36;100.00
33795;BME280;51430;52.242;21.118;2024-03-22T05:42:48;100406.13;;;9.34;100.00
33795;BME280;51430;52.242;21.118;2024-03-22T05:45:16;100397.73;;;9.42;100.00
33795;BME280;51430;52.242;21.118;2024-03-22T05:47:43;100404.59;;;9.48;100.00
33795;BME280;51430;52.242;21.118;2024-03-22T05:50:11;100402.93;;;9.55;100.00
33795;BME280;51430;52.242;21.118;2024-03-22T05:52:39;100406.26;;;9.52;100.00
33795;BME280;51430;52.242;21.118;2024-03-22T05:55:06;100409.97;;;9.56;100.00
33795;BME280;51430;52.242;21.118;2024-03-22T05:57:34;100410.10;;;9.66;100.00
33795;BME280;51430;52.242;21.118;2024-03-22T06:00:02;100413.70;;;9.74;100.00
33795;BME280;51430;52.242;21.118;2024-03-22T06:02:30;100407.26;;;9.77;100.00
33795;BME280;51430;52.242;21.118;2024-03-22T06:04:57;100407.13;;;9.74;100.00
33795;BME280;51430;52.242;21.118;2024-03-22T06:07:25;100399.17;;;9.78;100.00
33795;BME280;51430;52.242;21.118;2024-03-22T06:09:53;100399.02;;;9.83;100.00
33795;BME280;51430;52.242;21.118;2024-03-22T06:12:21;100397.93;;;9.88;100.00
33795;BME280;51430;52.242;21.118;2024-03-22T06:14:49;100396.98;;;9.89;100.00
33795;BME280;51430;52.242;21.118;2024-03-22T06:17:18;100396.77;;;9.90;100.00
33795;BME280;51430;52.242;21.118;2024-03-22T06:19:46;100397.29;;;9.92;100.00
33795;BME280;51430;52.242;21.118;2024-03-22T06:22:13;100393.61;;;9.95;100.00
33795;BME280;51430;52.242;21.118;2024-03-22T06:24:41;100396.86;;;9.95;100.00
33795;BME280;51430;52.242;21.118;2024-03-22T06:27:08;100404.79;;;9.99;100.00
33795;BME280;51430;52.242;21.118;2024-03-22T06:29:36;100405.13;;;10.01;100.00
33795;BME280;51430;52.242;21.118;2024-03-22T06:32:04;100411.13;;;9.98;100.00
33795;BME280;51430;52.242;21.118;2024-03-22T06:34:33;100410.36;;;9.89;100.00
33795;BME280;51430;52.242;21.118;2024-03-22T06:37:04;100413.05;;;9.90;100.00
33795;BME280;51430;52.242;21.118;2024-03-22T06:39:31;100411.72;;;9.92;100.00
33795;BME280;51430;52.242;21.118;2024-03-22T06:41:59;100411.64;;;9.88;100.00
33795;BME280;51430;52.242;21.118;2024-03-22T06:44:27;100413.67;;;9.87;100.00
33795;BME280;51430;52.242;21.118;2024-03-22T06:46:54;100414.13;;;9.85;100.00
33795;BME280;51430;52.242;21.118;2024-03-22T06:49:24;100419.23;;;9.80;100.00
33795;BME280;51430;52.242;21.118;2024-03-22T06:51:53;100416.05;;;9.83;100.00
33795;BME280;51430;52.242;21.118;2024-03-22T06:54:20;100411.90;;;9.80;100.00
33795;BME280;51430;52.242;21.118;2024-03-22T06:56:49;100408.84;;;9.81;100.00
33795;BME280;51430;52.242;21.118;2024-03-22T06:59:18;100409.66;;;9.85;100.00
33795;BME280;51430;52.242;21.118;2024-03-22T07:01:46;100408.77;;;9.95;100.00
33795;BME280;51430;52.242;21.118;2024-03-22T07:04:13;100407.36;;;10.05;100.00
33795;BME280;51430;52.242;21.118;2024-03-22T07:06:41;100404.05;;;10.17;100.00
33795;BME280;51430;52.242;21.118;2024-03-22T07:09:09;100403.02;;;10.24;100.00
33795;BME280;51430;52.242;21.118;2024-03-22T07:11:37;100404.91;;;10.35;100.00
33795;BME280;51430;52.242;21.118;2024-03-22T07:14:04;100410.50;;;10.49;100.00
33795;BME280;51430;52.242;21.118;2024-03-22T07:16:32;100406.34;;;10.60;100.00
33795;BME280;51430;52.242;21.118;2024-03-22T07:19:00;100409.61;;;10.70;99.70
33795;BME280;51430;52.242;21.118;2024-03-22T07:21:29;100412.50;;;10.75;99.00
33795;BME280;51430;52.242;21.118;2024-03-22T07:23:58;100413.00;;;10.78;98.18
33795;BME280;51430;52.242;21.118;2024-03-22T07:26:26;100407.70;;;10.68;96.24
33795;BME280;51430;52.242;21.118;2024-03-22T07:28:57;100406.73;;;10.58;95.94
33795;BME280;51430;52.242;21.118;2024-03-22T07:38:26;100404.75;;;10.56;97.77
33795;BME280;51430;52.242;21.118;2024-03-22T07:40:54;100403.57;;;10.51;97.95
33795;BME280;51430;52.242;21.118;2024-03-22T07:43:22;100402.34;;;10.53;96.83
33795;BME280;51430;52.242;21.118;2024-03-22T07:45:50;100403.66;;;10.56;96.36
33795;BME280;51430;52.242;21.118;2024-03-22T07:48:17;100403.23;;;10.55;95.93
33795;BME280;51430;52.242;21.118;2024-03-22T07:50:45;100404.86;;;10.63;95.97
33795;BME280;51430;52.242;21.118;2024-03-22T07:53:13;100402.48;;;10.63;96.00
33795;BME280;51430;52.242;21.118;2024-03-22T07:55:41;100397.62;;;10.60;94.91
33795;BME280;51430;52.242;21.118;2024-03-22T07:58:09;100404.26;;;10.65;94.84
33795;BME280;51430;52.242;21.118;2024-03-22T08:00:36;100402.23;;;10.62;93.70
33795;BME280;51430;52.242;21.118;2024-03-22T08:03:04;100395.68;;;10.60;93.63
33795;BME280;51430;52.242;21.118;2024-03-22T08:05:33;100397.40;;;10.70;94.25
33795;BME280;51430;52.242;21.118;2024-03-22T08:08:01;100397.52;;;10.78;94.12
33795;BME280;51430;52.242;21.118;2024-03-22T08:10:28;100390.08;;;10.79;92.25
33795;BME280;51430;52.242;21.118;2024-03-22T08:12:56;100392.43;;;10.85;91.46
33795;BME280;51430;52.242;21.118;2024-03-22T08:15:26;100392.33;;;10.84;90.23
33795;BME280;51430;52.242;21.118;2024-03-22T08:17:56;100392.20;;;10.83;90.11
33795;BME280;51430;52.242;21.118;2024-03-22T08:20:29;100388.93;;;10.87;91.48
33795;BME280;51430;52.242;21.118;2024-03-22T08:22:57;100389.80;;;10.92;92.18
33795;BME280;51430;52.242;21.118;2024-03-22T08:25:25;100389.88;;;10.95;91.35
33795;BME280;51430;52.242;21.118;2024-03-22T08:27:53;100387.06;;;10.98;88.60
33795;BME280;51430;52.242;21.118;2024-03-22T08:30:30;100386.24;;;10.95;88.86
33795;BME280;51430;52.242;21.118;2024-03-22T08:32:58;100390.88;;;10.98;88.43
33795;BME280;51430;52.242;21.118;2024-03-22T08:35:26;100386.66;;;11.01;88.45
33795;BME280;51430;52.242;21.118;2024-03-22T08:37:53;100387.55;;;11.09;88.64
33795;BME280;51430;52.242;21.118;2024-03-22T08:40:22;100390.45;;;11.12;89.23
33795;BME280;51430;52.242;21.118;2024-03-22T08:42:50;100391.16;;;11.08;88.35
33795;BME280;51430;52.242;21.118;2024-03-22T08:45:18;100395.33;;;10.97;87.56
33795;BME280;51430;52.242;21.118;2024-03-22T08:47:46;100393.88;;;10.89;85.26
33795;BME280;51430;52.242;21.118;2024-03-22T08:50:14;100390.59;;;10.75;85.30
33795;BME280;51430;52.242;21.118;2024-03-22T08:54:44;100386.94;;;10.72;85.73
33795;BME280;51430;52.242;21.118;2024-03-22T08:58:23;100390.15;;;10.46;87.32
33795;BME280;51430;52.242;21.118;2024-03-22T09:02:01;100384.77;;;10.39;87.12
33795;BME280;51430;52.242;21.118;2024-03-22T09:05:38;100389.05;;;10.21;87.06
33795;BME280;51430;52.242;21.118;2024-03-22T09:09:15;100380.46;;;10.08;88.19
33795;BME280;51430;52.242;21.118;2024-03-22T09:11:44;100382.21;;;10.10;89.20
33795;BME280;51430;52.242;21.118;2024-03-22T09:14:12;100382.98;;;10.31;89.94
33795;BME280;51430;52.242;21.118;2024-03-22T09:16:39;100380.17;;;10.49;88.83
33795;BME280;51430;52.242;21.118;2024-03-22T09:19:08;100380.56;;;10.53;88.27
33795;BME280;51430;52.242;21.118;2024-03-22T09:21:42;100382.16;;;10.55;87.17
33795;BME280;51430;52.242;21.118;2024-03-22T09:24:11;100382.39;;;10.52;86.18
33795;BME280;51430;52.242;21.118;2024-03-22T09:26:39;100383.27;;;10.59;86.47
33795;BME280;51430;52.242;21.118;2024-03-22T09:29:06;100383.95;;;10.55;85.22
33795;BME280;51430;52.242;21.118;2024-03-22T09:31:35;100374.66;;;10.57;85.65
33795;BME280;51430;52.242;21.118;2024-03-22T09:34:03;100370.55;;;10.61;85.92
33795;BME280;51430;52.242;21.118;2024-03-22T09:36:30;100372.02;;;10.60;85.44
33795;BME280;51430;52.242;21.118;2024-03-22T09:39:02;100371.80;;;10.56;85.31
33795;BME280;51430;52.242;21.118;2024-03-22T09:43:33;100366.44;;;10.64;86.08
33795;BME280;51430;52.242;21.118;2024-03-22T09:47:06;100368.04;;;10.69;87.15
33795;BME280;51430;52.242;21.118;2024-03-22T09:50:45;100365.79;;;10.78;87.51
33795;BME280;51430;52.242;21.118;2024-03-22T09:54:24;100363.34;;;10.75;85.58
33795;BME280;51430;52.242;21.118;2024-03-22T09:58:01;100357.67;;;10.59;86.05
33795;BME280;51430;52.242;21.118;2024-03-22T10:01:58;100356.06;;;10.50;86.47
33795;BME280;51430;52.242;21.118;2024-03-22T10:05:16;100353.10;;;10.45;86.30
33795;BME280;51430;52.242;21.118;2024-03-22T10:09:01;100350.18;;;10.44;86.75
33795;BME280;51430;52.242;21.118;2024-03-22T10:11:30;100346.98;;;10.47;86.28
33795;BME280;51430;52.242;21.118;2024-03-22T10:13:59;100343.66;;;10.68;86.77
33795;BME280;51430;52.242;21.118;2024-03-22T10:16:33;100337.97;;;10.61;87.17
33795;BME280;51430;52.242;21.118;2024-03-22T10:19:01;100339.15;;;10.63;87.03
33795;BME280;51430;52.242;21.118;2024-03-22T10:21:29;100336.00;;;10.73;85.26
33795;BME280;51430;52.242;21.118;2024-03-22T10:25:28;100331.78;;;10.75;85.23
33795;BME280;51430;52.242;21.118;2024-03-22T10:39:43;100323.92;;;10.44;87.34
33795;BME280;51430;52.242;21.118;2024-03-22T10:57:00;100318.52;;;10.48;89.27
33795;BME280;51430;52.242;21.118;2024-03-22T10:59:56;100312.02;;;10.49;88.90
33795;BME280;51430;52.242;21.118;2024-03-22T11:03:32;100306.79;;;10.29;90.32
33795;BME280;51430;52.242;21.118;2024-03-22T11:17:31;100293.40;;;10.37;91.29
33795;BME280;51430;52.242;21.118;2024-03-22T11:20:23;100289.77;;;10.30;92.23
33795;BME280;51430;52.242;21.118;2024-03-22T11:24:14;100288.98;;;10.27;92.15
33795;BME280;51430;52.242;21.118;2024-03-22T11:27:37;100286.97;;;10.39;92.78
33795;BME280;51430;52.242;21.118;2024-03-22T11:30:06;100288.40;;;10.61;92.44
33795;BME280;51430;52.242;21.118;2024-03-22T11:32:34;100281.70;;;10.87;91.28
33795;BME280;51430;52.242;21.118;2024-03-22T11:35:13;100278.95;;;11.03;89.59
33795;BME280;51430;52.242;21.118;2024-03-22T11:37:41;100272.44;;;11.18;88.29
33795;BME280;51430;52.242;21.118;2024-03-22T12:06:56;100252.96;;;11.32;83.62
33795;BME280;51430;52.242;21.118;2024-03-22T12:20:15;100249.34;;;11.29;83.03
33795;BME280;51430;52.242;21.118;2024-03-22T12:23:04;100248.49;;;11.31;81.21
33795;BME280;51430;52.242;21.118;2024-03-22T12:25:32;100241.61;;;11.21;81.47
33795;BME280;51430;52.242;21.118;2024-03-22T12:28:06;100239.46;;;11.28;81.01
33795;BME280;51430;52.242;21.118;2024-03-22T12:30:34;100236.23;;;11.36;80.97
33795;BME280;51430;52.242;21.118;2024-03-22T12:33:02;100227.69;;;11.55;80.26
33795;BME280;51430;52.242;21.118;2024-03-22T12:38:11;100226.31;;;11.74;80.22
33795;BME280;51430;52.242;21.118;2024-03-22T12:41:49;100220.27;;;11.71;79.04
33795;BME280;51430;52.242;21.118;2024-03-22T12:45:26;100208.75;;;11.53;79.39
33795;BME280;51430;52.242;21.118;2024-03-22T12:49:05;100199.15;;;11.51;79.53
33795;BME280;51430;52.242;21.118;2024-03-22T12:52:48;100202.28;;;11.64;79.20
33795;BME280;51430;52.242;21.118;2024-03-22T12:56:40;100198.45;;;11.64;79.84
33795;BME280;51430;52.242;21.118;2024-03-22T12:59:07;100199.30;;;11.58;79.28
33795;BME280;51430;52.242;21.118;2024-03-22T13:01:33;100197.37;;;11.58;79.41
33795;BME280;51430;52.242;21.118;2024-03-22T13:04:00;100190.00;;;11.60;79.32
33795;BME280;51430;52.242;21.118;2024-03-22T13:06:27;100189.44;;;11.72;78.89
33795;BME280;51430;52.242;21.118;2024-03-22T13:10:10;100183.27;;;11.75;79.89
33795;BME280;51430;52.242;21.118;2024-03-22T13:13:46;100185.39;;;11.70;79.62
33795;BME280;51430;52.242;21.118;2024-03-22T13:17:22;100185.91;;;11.73;79.19
33795;BME280;51430;52.242;21.118;2024-03-22T13:21:04;100178.95;;;11.57;79.29
33795;BME280;51430;52.242;21.118;2024-03-22T13:24:58;100172.27;;;11.57;80.28
33795;BME280;51430;52.242;21.118;2024-03-22T13:28:40;100169.21;;;11.76;78.98
33795;BME280;51430;52.242;21.118;2024-03-22T13:36:37;100152.23;;;11.61;78.08
33795;BME280;51430;52.242;21.118;2024-03-22T13:40:17;100145.45;;;11.53;78.37
33795;BME280;51430;52.242;21.118;2024-03-22T13:43:51;100135.11;;;11.68;78.32
33795;BME280;51430;52.242;21.118;2024-03-22T13:57:52;100127.86;;;12.12;77.74
33795;BME280;51430;52.242;21.118;2024-03-22T14:24:58;100095.70;;;12.06;77.66
33795;BME280;51430;52.242;21.118;2024-03-22T14:43:05;100067.23;;;12.01;78.04
33795;BME280;51430;52.242;21.118;2024-03-22T14:46:21;100062.58;;;11.85;78.69
33795;BME280;51430;52.242;21.118;2024-03-22T14:49:49;100057.69;;;11.79;79.22
33795;BME280;51430;52.242;21.118;2024-03-22T14:53:36;100048.04;;;11.65;79.58
33795;BME280;51430;52.242;21.118;2024-03-22T14:57:14;100052.48;;;11.66;79.64
33795;BME280;51430;52.242;21.118;2024-03-22T15:00:23;100041.89;;;11.65;80.10
33795;BME280;51430;52.242;21.118;2024-03-22T15:04:08;100033.52;;;11.57;81.11
33795;BME280;51430;52.242;21.118;2024-03-22T15:07:51;100024.21;;;11.58;81.63
33795;BME280;51430;52.242;21.118;2024-03-22T15:10:21;100014.67;;;11.41;82.38
33795;BME280;51430;52.242;21.118;2024-03-22T15:12:50;100012.52;;;11.58;81.28
33795;BME280;51430;52.242;21.118;2024-03-22T15:15:23;100009.92;;;11.59;81.18
33795;BME280;51430;52.242;21.118;2024-03-22T15:17:51;100005.19;;;11.50;82.08
33795;BME280;51430;52.242;21.118;2024-03-22T15:20:19;100013.09;;;11.72;81.03
33795;BME280;51430;52.242;21.118;2024-03-22T15:22:46;100013.26;;;11.72;80.93
33795;BME280;51430;52.242;21.118;2024-03-22T15:25:14;100012.80;;;11.60;80.49
33795;BME280;51430;52.242;21.118;2024-03-22T15:27:43;100009.56;;;11.49;81.93
33795;BME280;51430;52.242;21.118;2024-03-22T15:30:12;100004.39;;;11.28;83.92
33795;BME280;51430;52.242;21.118;2024-03-22T15:32:41;100006.58;;;11.25;83.75
33795;BME280;51430;52.242;21.118;2024-03-22T15:35:08;100000.05;;;11.14;84.27
33795;BME280;51430;52.242;21.118;2024-03-22T15:37:37;100004.11;;;11.05;84.64
33795;BME280;51430;52.242;21.118;2024-03-22T15:40:07;100005.27;;;11.01;84.39
33795;BME280;51430;52.242;21.118;2024-03-22T15:42:37;99998.78;;;10.98;83.85
33795;BME280;51430;52.242;21.118;2024-03-22T15:45:09;100000.06;;;10.95;84.03
33795;BME280;51430;52.242;21.118;2024-03-22T15:48:05;99995.23;;;10.94;83.78
33795;BME280;51430;52.242;21.118;2024-03-22T15:52:00;99984.20;;;10.91;83.54
33795;BME280;51430;52.242;21.118;2024-03-22T15:55:38;99977.55;;;10.78;84.52
33795;BME280;51430;52.242;21.118;2024-03-22T15:58:57;99976.50;;;10.83;84.29